Time;durP1;ratioP1;P1;durP2;ratioP2;P2;SDS_P1;SDS_P2;PMS_P1;PMS_P2;Temp;Humidity;BMP_temperature;BMP_pressure;BME280_temperature;BME280_humidity;BME280_pressure;Samples;Min_cycle;Max_cycle;Signal;HPM_P1;HPM_P2
2022/05/28 00:00:59;;;;;;;1.27;1.17;;;;;;;17.00;68.90;97008.06;5053244;28;20231;-49
2022/05/28 00:03:27;;;;;;;0.82;0.82;;;;;;;17.02;68.23;97011.41;5053655;28;20611;-48
2022/05/28 00:05:54;;;;;;;1.00;1.00;;;;;;;16.98;67.74;97015.41;5049511;28;20555;-48
2022/05/28 00:08:22;;;;;;;1.15;1.05;;;;;;;16.96;67.91;97004.09;5061634;28;20207;-49
2022/05/28 00:10:50;;;;;;;1.27;1.13;;;;;;;17.15;65.86;96999.13;5071767;28;20211;-48
2022/05/28 00:13:16;;;;;;;1.42;1.00;;;;;;;17.01;66.53;96996.38;5055530;28;20592;-49
2022/05/28 00:15:43;;;;;;;1.00;0.90;;;;;;;17.07;66.11;97003.69;5055026;28;20616;-48
2022/05/28 00:18:10;;;;;;;1.73;1.40;;;;;;;16.98;67.35;97004.72;5055087;28;20230;-50
2022/05/28 00:20:38;;;;;;;1.48;1.38;;;;;;;16.96;67.47;96986.22;5054889;28;20207;-49
2022/05/28 00:23:04;;;;;;;1.50;1.33;;;;;;;16.87;67.07;96989.91;5055187;28;20318;-49
2022/05/28 00:25:32;;;;;;;1.55;1.02;;;;;;;16.92;65.96;96991.06;5055595;28;20237;-48
2022/05/28 00:28:01;;;;;;;1.00;1.00;;;;;;;16.84;66.19;96985.75;5062234;28;20218;-49
2022/05/28 00:30:29;;;;;;;1.08;1.05;;;;;;;16.93;65.43;96987.38;5057676;28;20655;-49
2022/05/28 00:32:56;;;;;;;1.00;1.00;;;;;;;16.88;66.35;96978.22;5056182;28;20218;-49
2022/05/28 00:35:22;;;;;;;1.20;1.10;;;;;;;16.83;65.34;96975.25;5058328;28;20206;-49
2022/05/28 00:37:49;;;;;;;2.58;1.17;;;;;;;16.78;66.92;96977.63;5066187;28;20226;-49
2022/05/28 00:40:20;;;;;;;1.17;1.15;;;;;;;16.82;66.10;96979.78;5063088;28;20226;-49
2022/05/28 00:42:48;;;;;;;1.10;1.00;;;;;;;16.80;65.22;96972.91;5052738;28;20295;-48
2022/05/28 00:45:19;;;;;;;1.70;1.25;;;;;;;16.78;65.87;96972.28;5072843;28;20207;-49
2022/05/28 00:47:48;;;;;;;1.38;1.30;;;;;;;16.80;65.69;96970.25;5043342;28;20230;-49
2022/05/28 00:50:15;;;;;;;1.17;1.08;;;;;;;16.78;64.26;96967.75;5043291;28;20211;-49
2022/05/28 00:52:44;;;;;;;1.17;1.17;;;;;;;16.73;65.13;96970.13;5041652;28;20207;-49
2022/05/28 00:55:11;;;;;;;1.67;1.20;;;;;;;16.77;63.32;96968.75;5055770;28;20238;-50
2022/05/28 00:57:39;;;;;;;1.42;1.33;;;;;;;16.69;64.46;96963.44;5054718;28;20214;-49
2022/05/28 01:00:08;;;;;;;1.10;1.10;;;;;;;16.64;64.48;96952.47;5054003;28;20235;-49
2022/05/28 01:02:44;;;;;;;1.23;1.20;;;;;;;16.60;65.12;96958.31;5051666;28;20231;-48
2022/05/28 01:05:15;;;;;;;1.85;1.20;;;;;;;16.60;64.62;96959.16;5042631;28;20260;-49
2022/05/28 01:07:49;;;;;;;1.50;1.40;;;;;;;16.71;63.42;96966.78;5054582;28;20207;-50
2022/05/28 01:10:22;;;;;;;1.33;1.23;;;;;;;16.54;65.58;96950.97;5054830;28;20553;-48
2022/05/28 01:12:56;;;;;;;2.53;1.60;;;;;;;16.50;65.98;96958.50;5054748;28;20243;-48
2022/05/28 01:15:24;;;;;;;1.50;1.40;;;;;;;16.50;65.31;96958.50;5054577;28;20265;-49
2022/05/28 01:17:56;;;;;;;1.50;1.40;;;;;;;16.48;63.89;96949.81;5054510;28;20211;-48
2022/05/28 01:20:25;;;;;;;1.02;1.02;;;;;;;16.47;64.68;96956.19;5054368;28;20660;-48
2022/05/28 01:23:08;;;;;;;1.67;1.45;;;;;;;16.48;64.72;96954.31;5049563;28;20562;-48
2022/05/28 01:25:45;;;;;;;2.10;1.27;;;;;;;16.46;65.03;96951.84;5060587;28;20199;-50
2022/05/28 01:28:16;;;;;;;1.55;1.38;;;;;;;16.41;64.73;96948.84;5064182;28;20252;-49
2022/05/28 01:30:43;;;;;;;1.75;1.52;;;;;;;16.39;65.01;96946.34;5059187;28;20203;-49
2022/05/28 01:33:10;;;;;;;1.70;1.60;;;;;;;16.38;65.52;96946.50;5054724;28;20207;-49
2022/05/28 01:35:38;;;;;;;1.63;1.10;;;;;;;16.36;65.26;96940.53;5054546;28;20646;-49
2022/05/28 01:38:06;;;;;;;1.17;1.13;;;;;;;16.36;64.83;96933.34;5077868;28;20184;-49
2022/05/28 01:40:33;;;;;;;1.25;1.20;;;;;;;16.36;64.09;96941.38;5077253;28;20210;-50
2022/05/28 01:43:05;;;;;;;1.65;1.38;;;;;;;16.40;63.20;96931.19;5069901;28;20253;-49
2022/05/28 01:45:34;;;;;;;1.53;1.40;;;;;;;16.41;63.27;96930.16;5054857;28;20585;-49
2022/05/28 01:48:03;;;;;;;1.48;1.20;;;;;;;16.30;64.88;96926.00;5054209;28;20635;-48
2022/05/28 01:50:32;;;;;;;1.55;1.45;;;;;;;16.23;66.47;96921.53;5053843;28;20218;-50
2022/05/28 01:53:01;;;;;;;2.00;1.40;;;;;;;16.19;66.55;96928.25;5056853;28;20675;-49
2022/05/28 01:55:32;;;;;;;1.38;1.38;;;;;;;16.21;64.36;96927.06;5057801;28;20231;-48
2022/05/28 01:57:58;;;;;;;1.55;1.45;;;;;;;16.19;64.86;96922.91;5057862;28;20222;-49
2022/05/28 02:00:25;;;;;;;1.35;1.35;;;;;;;16.21;64.96;96924.38;5057491;28;20199;-48
2022/05/28 02:02:54;;;;;;;2.50;1.65;;;;;;;16.17;65.46;96927.56;5057865;28;20234;-47
2022/05/28 02:05:21;;;;;;;1.83;1.33;;;;;;;16.13;65.63;96919.06;5057632;28;20215;-50
2022/05/28 02:07:49;;;;;;;1.20;1.10;;;;;;;16.15;64.39;96921.56;5057610;28;20218;-49
2022/05/28 02:10:17;;;;;;;1.20;1.20;;;;;;;16.18;64.83;96921.22;5057332;28;20305;-48
2022/05/28 02:12:49;;;;;;;2.47;1.53;;;;;;;16.09;65.74;96917.72;5057761;28;20636;-49
2022/05/28 02:15:25;;;;;;;1.60;1.50;;;;;;;16.09;64.76;96923.06;5056268;28;20310;-48
2022/05/28 02:17:56;;;;;;;1.50;1.10;;;;;;;16.02;65.65;96913.25;5057785;28;20199;-49
2022/05/28 02:20:27;;;;;;;2.00;1.80;;;;;;;15.99;65.53;96910.91;5056972;28;20211;-49
2022/05/28 02:22:58;;;;;;;1.70;1.33;;;;;;;16.02;64.74;96908.75;5057212;28;20223;-49
2022/05/28 02:25:29;;;;;;;1.75;1.50;;;;;;;15.99;65.70;96898.41;5057133;28;20202;-50
2022/05/28 02:27:56;;;;;;;1.30;1.30;;;;;;;16.00;65.63;96901.91;5057178;28;20203;-49
2022/05/28 02:30:23;;;;;;;2.15;1.38;;;;;;;15.87;68.16;96895.25;5055772;28;20242;-49
2022/05/28 02:32:50;;;;;;;1.60;1.50;;;;;;;15.84;67.37;96890.28;5057175;28;20203;-49
2022/05/28 02:35:19;;;;;;;1.35;1.25;;;;;;;15.89;66.44;96895.13;5056727;28;20542;-49
2022/05/28 02:37:46;;;;;;;1.83;1.55;;;;;;;15.87;65.96;96884.59;5057175;28;20211;-49
2022/05/28 02:40:13;;;;;;;1.53;1.40;;;;;;;15.93;65.33;96889.28;5057646;28;20536;-49
2022/05/28 02:42:41;;;;;;;1.57;1.47;;;;;;;15.87;66.01;96889.13;5057868;28;20223;-49
2022/05/28 02:45:09;;;;;;;1.63;1.53;;;;;;;15.86;65.96;96888.28;5057668;28;20218;-49
2022/05/28 02:47:36;;;;;;;1.50;1.40;;;;;;;15.80;66.80;96886.28;5057767;28;20222;-49
2022/05/28 02:50:03;;;;;;;1.77;1.40;;;;;;;15.80;66.70;96885.47;5058068;28;20586;-49
2022/05/28 02:52:34;;;;;;;2.60;1.40;;;;;;;15.79;67.64;96889.97;5057715;28;20218;-48
2022/05/28 02:55:01;;;;;;;1.57;1.47;;;;;;;15.72;67.69;96890.81;5059629;28;20215;-48
2022/05/28 02:57:28;;;;;;;1.63;1.43;;;;;;;15.77;67.24;96886.63;5065359;28;20266;-49
2022/05/28 02:59:56;;;;;;;1.53;1.37;;;;;;;15.77;67.08;96888.44;5058091;28;20225;-49
2022/05/28 03:02:23;;;;;;;1.80;1.70;;;;;;;15.70;67.94;96888.31;5066886;28;20322;-49
2022/05/28 03:04:49;;;;;;;2.45;1.27;;;;;;;15.62;69.57;96883.00;5063032;28;20271;-49
2022/05/28 03:07:16;;;;;;;1.73;1.63;;;;;;;15.61;70.46;96885.81;5061344;28;20563;-49
2022/05/28 03:09:45;;;;;;;1.50;1.38;;;;;;;15.60;68.38;96892.97;5063408;28;20215;-49
2022/05/28 03:12:11;;;;;;;1.63;1.52;;;;;;;15.54;68.78;96884.81;5060732;28;20239;-50
2022/05/28 03:14:40;;;;;;;1.80;1.67;;;;;;;15.53;69.22;96878.66;5066909;28;20207;-54
2022/05/28 03:17:09;;;;;;;1.40;1.30;;;;;;;15.49;71.00;96872.00;5064916;28;20590;-51
2022/05/28 03:19:35;;;;;;;1.60;1.40;;;;;;;15.51;69.41;96878.00;5045133;28;20233;-49
2022/05/28 03:22:02;;;;;;;1.67;1.58;;;;;;;15.44;72.30;96879.66;5058280;28;20238;-49
2022/05/28 03:24:29;;;;;;;1.77;1.67;;;;;;;15.44;70.77;96880.44;5064466;28;20273;-49
2022/05/28 03:26:57;;;;;;;1.70;1.60;;;;;;;15.47;69.58;96881.13;5055727;28;20696;-48
2022/05/28 03:29:24;;;;;;;1.60;1.50;;;;;;;15.49;69.75;96877.31;5050739;28;20605;-48
2022/05/28 03:31:50;;;;;;;2.27;1.60;;;;;;;15.49;69.87;96871.16;5055910;28;20218;-49
2022/05/28 03:34:17;;;;;;;2.10;1.60;;;;;;;15.41;70.36;96870.13;5042539;28;20218;-48
2022/05/28 03:36:45;;;;;;;1.93;1.73;;;;;;;15.49;69.09;96872.00;5055582;28;20207;-48
2022/05/28 03:39:12;;;;;;;1.80;1.57;;;;;;;15.48;69.39;96874.81;5042518;28;20214;-49
2022/05/28 03:41:38;;;;;;;1.67;1.57;;;;;;;15.52;69.32;96866.31;5054103;28;20632;-48
2022/05/28 03:44:11;;;;;;;1.37;1.27;;;;;;;15.51;68.83;96870.00;5052501;28;20544;-48
2022/05/28 03:46:38;;;;;;;1.70;1.60;;;;;;;15.50;69.46;96873.66;5055407;28;20225;-49
2022/05/28 03:49:09;;;;;;;1.70;1.60;;;;;;;15.41;70.33;96871.97;5055597;28;20214;-49
2022/05/28 03:51:36;;;;;;;2.00;1.90;;;;;;;15.49;69.43;96871.16;5055255;28;20211;-48
2022/05/28 03:54:03;;;;;;;1.80;1.70;;;;;;;15.40;70.10;96870.31;5057973;28;20203;-49
2022/05/28 03:56:34;;;;;;;1.90;1.80;;;;;;;15.38;70.29;96874.97;5076075;28;20186;-48
2022/05/28 03:59:01;;;;;;;1.60;1.50;;;;;;;15.32;71.79;96881.81;5079017;28;20207;-49
2022/05/28 04:01:29;;;;;;;1.70;1.60;;;;;;;15.31;72.00;96879.28;5069514;28;20207;-48
2022/05/28 04:03:56;;;;;;;2.67;1.60;;;;;;;15.37;69.94;96883.97;5063277;28;20257;-49
2022/05/28 04:06:23;;;;;;;1.63;1.47;;;;;;;15.40;70.30;96883.63;5055032;28;20207;-48
2022/05/28 04:08:49;;;;;;;1.90;1.80;;;;;;;15.36;71.10;96892.97;5051288;28;20424;-48
2022/05/28 04:11:20;;;;;;;2.40;1.80;;;;;;;15.36;71.71;96895.63;5051924;28;20207;-49
2022/05/28 04:13:50;;;;;;;2.30;2.10;;;;;;;15.33;72.14;96896.81;5045701;28;20199;-49
2022/05/28 04:16:17;;;;;;;1.57;1.47;;;;;;;15.32;72.50;96904.94;5052564;28;20542;-48
2022/05/28 04:18:47;;;;;;;1.80;1.70;;;;;;;15.36;72.10;96908.94;5054993;28;20199;-49
2022/05/28 04:21:15;;;;;;;2.23;1.80;;;;;;;15.37;71.83;96899.97;5054908;28;20207;-49
2022/05/28 04:23:42;;;;;;;2.20;1.80;;;;;;;15.33;72.33;96909.28;5054560;28;20570;-49
2022/05/28 04:26:09;;;;;;;1.90;1.80;;;;;;;15.30;74.42;96910.44;5050953;28;20211;-49
2022/05/28 04:28:38;;;;;;;2.13;1.90;;;;;;;15.25;74.43;96907.44;5046503;28;20251;-48
2022/05/28 04:31:04;;;;;;;3.87;1.73;;;;;;;15.27;73.63;96900.09;5054988;28;20217;-49
2022/05/28 04:33:31;;;;;;;2.20;1.63;;;;;;;15.21;75.16;96906.09;5055010;28;20218;-49
2022/05/28 04:35:59;;;;;;;2.33;1.40;;;;;;;15.27;74.74;96897.44;5054507;28;20541;-49
2022/05/28 04:38:26;;;;;;;1.60;1.50;;;;;;;15.27;74.94;96902.78;5054440;28;20221;-48
2022/05/28 04:40:55;;;;;;;2.70;1.70;;;;;;;15.29;74.49;96894.63;5054750;28;20211;-49
2022/05/28 04:43:21;;;;;;;2.17;2.07;;;;;;;15.32;74.28;96904.94;5054573;28;20242;-49
2022/05/28 04:45:50;;;;;;;1.83;1.73;;;;;;;15.34;75.35;96908.28;5054320;28;20636;-48
2022/05/28 04:48:17;;;;;;;2.33;1.90;;;;;;;15.30;74.20;96905.09;5054622;28;20207;-49
2022/05/28 04:50:45;;;;;;;1.83;1.73;;;;;;;15.33;74.37;96901.28;5054640;28;20211;-49
2022/05/28 04:53:14;;;;;;;2.73;1.80;;;;;;;15.28;75.78;96911.59;5054299;28;20830;-48
2022/05/28 04:55:41;;;;;;;2.27;1.90;;;;;;;15.28;77.28;96911.59;5054252;28;20203;-48
2022/05/28 04:58:12;;;;;;;2.20;2.00;;;;;;;15.33;75.10;96907.47;5053283;28;20207;-48
2022/05/28 05:00:39;;;;;;;2.20;2.10;;;;;;;15.36;74.72;96908.94;5054745;28;20230;-49
2022/05/28 05:03:09;;;;;;;1.97;1.83;;;;;;;15.38;75.81;96910.44;5054385;28;20226;-49
2022/05/28 05:05:35;;;;;;;1.90;1.80;;;;;;;15.40;76.53;96910.28;5054285;28;20670;-48
2022/05/28 05:08:04;;;;;;;3.57;2.03;;;;;;;15.40;76.99;96910.28;5041311;28;20211;-49
2022/05/28 05:10:34;;;;;;;2.70;2.27;;;;;;;15.42;77.24;96918.94;5054429;28;20290;-48
2022/05/28 05:13:01;;;;;;;2.20;2.00;;;;;;;15.38;77.82;96915.78;5054196;28;20298;-48
2022/05/28 05:15:29;;;;;;;2.23;2.10;;;;;;;15.43;76.96;96915.28;5053902;28;20211;-48
2022/05/28 05:17:56;;;;;;;1.90;1.80;;;;;;;15.43;76.54;96918.78;5053713;28;20195;-48
2022/05/28 05:20:25;;;;;;;3.47;2.37;;;;;;;15.40;77.54;96924.47;5054571;28;20211;-48
2022/05/28 05:22:53;;;;;;;2.10;2.00;;;;;;;15.39;76.82;96920.13;5054217;28;20237;-49
2022/05/28 05:25:20;;;;;;;2.27;2.10;;;;;;;15.35;77.56;96920.59;5054171;28;20226;-48
2022/05/28 05:27:49;;;;;;;2.50;2.30;;;;;;;15.33;78.35;96915.47;5056316;28;20239;-48
2022/05/28 05:30:16;;;;;;;3.10;2.13;;;;;;;15.27;79.12;96928.59;5057950;28;20231;-49
2022/05/28 05:32:43;;;;;;;2.30;2.20;;;;;;;15.31;78.47;96922.75;5057324;28;20203;-48
2022/05/28 05:35:10;;;;;;;1.73;1.67;;;;;;;15.34;77.36;96926.91;5058165;28;20217;-49
2022/05/28 05:37:36;;;;;;;2.00;1.90;;;;;;;15.33;77.89;96926.13;5058241;28;20203;-48
2022/05/28 05:40:05;;;;;;;3.13;2.00;;;;;;;15.33;77.10;96925.28;5057666;28;20202;-48
2022/05/28 05:42:33;;;;;;;1.93;1.83;;;;;;;15.34;76.93;96925.09;5057824;28;20211;-48
2022/05/28 05:45:03;;;;;;;2.50;2.28;;;;;;;15.39;76.65;96935.25;5057894;28;20211;-49
2022/05/28 05:47:30;;;;;;;2.90;2.55;;;;;;;15.43;76.05;96933.94;5057993;28;20199;-48
2022/05/28 05:49:57;;;;;;;2.50;2.30;;;;;;;15.42;75.97;96930.44;5044434;28;20203;-48
2022/05/28 05:52:24;;;;;;;2.67;2.47;;;;;;;15.51;73.97;96933.97;5057919;28;20218;-48
2022/05/28 05:54:51;;;;;;;2.10;2.00;;;;;;;15.49;75.15;96925.31;5057494;28;20203;-49
2022/05/28 05:57:17;;;;;;;2.10;2.00;;;;;;;15.48;76.33;96922.78;5057737;28;20211;-48
2022/05/28 05:59:45;;;;;;;2.17;1.90;;;;;;;15.55;75.38;96932.66;5057742;28;20214;-49
2022/05/28 06:02:14;;;;;;;3.63;2.30;;;;;;;15.62;75.85;96931.00;5057120;28;20214;-48
2022/05/28 06:04:41;;;;;;;2.60;2.30;;;;;;;15.64;75.28;96928.97;5056371;28;20223;-49
2022/05/28 06:07:08;;;;;;;2.43;2.23;;;;;;;15.77;75.30;96933.78;5057737;28;20571;-49
2022/05/28 06:09:35;;;;;;;2.90;2.33;;;;;;;15.91;74.23;96928.59;5057466;28;20226;-49
2022/05/28 06:12:01;;;;;;;2.95;2.15;;;;;;;16.00;73.27;96928.59;5070797;28;20246;-48
2022/05/28 06:14:28;;;;;;;3.80;2.40;;;;;;;16.17;71.86;96931.06;5080281;28;20187;-48
2022/05/28 06:16:54;;;;;;;3.28;2.40;;;;;;;16.45;71.39;96923.47;5081216;28;20203;-48
2022/05/28 06:19:23;;;;;;;2.30;2.10;;;;;;;17.15;69.49;96931.47;5072489;28;20233;-49
2022/05/28 06:21:49;;;;;;;2.60;2.40;;;;;;;17.47;67.24;96925.06;5057689;28;20221;-49
2022/05/28 06:24:17;;;;;;;2.35;2.22;;;;;;;17.95;63.83;96929.22;5057129;28;20237;-49
2022/05/28 06:26:45;;;;;;;2.90;2.30;;;;;;;18.37;63.55;96929.44;5056507;28;20203;-48
2022/05/28 06:29:12;;;;;;;2.80;2.45;;;;;;;18.76;62.04;96918.47;5057066;28;20340;-49
2022/05/28 06:31:39;;;;;;;2.75;2.55;;;;;;;19.09;62.02;96918.88;5057094;28;20221;-49
2022/05/28 06:34:06;;;;;;;2.28;2.08;;;;;;;19.71;58.88;96917.25;5056747;28;20213;-49
2022/05/28 06:36:34;;;;;;;2.55;2.22;;;;;;;20.05;58.31;96916.47;5057033;28;20215;-50
2022/05/28 06:39:00;;;;;;;2.50;2.03;;;;;;;20.52;55.13;96914.94;5072294;28;20215;-50
2022/05/28 06:41:28;;;;;;;2.50;2.30;;;;;;;20.69;53.49;96916.31;5056902;28;20207;-51
2022/05/28 06:43:54;;;;;;;3.83;2.40;;;;;;;20.75;51.90;96915.50;5056977;28;20231;-51
2022/05/28 06:46:21;;;;;;;2.50;2.20;;;;;;;20.70;52.54;96918.78;5056626;28;20230;-51
2022/05/28 06:48:48;;;;;;;2.65;2.20;;;;;;;20.46;50.00;96919.28;5056154;28;20211;-50
2022/05/28 06:51:14;;;;;;;3.22;2.35;;;;;;;20.19;51.61;96920.09;5056416;28;20639;-51
2022/05/28 06:53:47;;;;;;;2.58;2.38;;;;;;;20.32;50.70;96912.16;5043491;28;20228;-51
2022/05/28 06:56:15;;;;;;;2.88;2.15;;;;;;;20.68;50.90;96910.09;5056903;28;20245;-50
2022/05/28 06:58:44;;;;;;;2.20;2.05;;;;;;;20.82;50.73;96909.13;5056896;28;20697;-53
2022/05/28 07:01:11;;;;;;;3.38;2.00;;;;;;;20.77;50.41;96913.44;5054156;28;20207;-51
2022/05/28 07:03:42;;;;;;;2.63;2.10;;;;;;;20.48;50.10;96908.31;5056352;28;20230;-52
2022/05/28 07:06:11;;;;;;;3.55;2.45;;;;;;;21.05;51.80;96910.63;5056814;28;20207;-50
2022/05/28 07:08:38;;;;;;;2.55;2.35;;;;;;;20.67;50.16;96910.28;5056643;28;20568;-52
2022/05/28 07:11:06;;;;;;;3.33;2.55;;;;;;;20.67;49.93;96911.13;5056456;28;20226;-53
2022/05/28 07:13:33;;;;;;;3.42;2.80;;;;;;;20.51;49.24;96911.44;5056578;28;20231;-52
2022/05/28 07:16:03;;;;;;;2.95;2.60;;;;;;;20.60;49.61;96910.25;5056437;28;20595;-52
2022/05/28 07:18:30;;;;;;;3.80;2.65;;;;;;;20.31;53.07;96905.94;5056287;28;20293;-50
2022/05/28 07:20:56;;;;;;;3.70;2.28;;;;;;;20.71;51.46;96904.31;5056274;28;20210;-53
2022/05/28 07:23:26;;;;;;;2.65;2.30;;;;;;;21.01;52.11;96906.72;5056297;28;20574;-53
2022/05/28 07:25:59;;;;;;;2.67;2.47;;;;;;;21.23;50.59;96906.38;5055147;28;20207;-53
2022/05/28 07:28:27;;;;;;;3.05;2.50;;;;;;;21.11;50.55;96901.81;5055325;28;20571;-52
2022/05/28 07:30:55;;;;;;;4.78;2.60;;;;;;;20.83;49.25;96900.00;5056163;28;20203;-52
2022/05/28 07:33:22;;;;;;;2.72;2.35;;;;;;;20.56;49.55;96892.88;5056366;28;20269;-51
2022/05/28 07:35:49;;;;;;;2.72;2.50;;;;;;;19.90;50.63;96901.50;5055909;28;20215;-49
2022/05/28 07:38:18;;;;;;;2.63;2.40;;;;;;;19.45;50.88;96903.56;5056230;28;20218;-50
2022/05/28 07:40:44;;;;;;;3.03;2.17;;;;;;;19.26;54.67;96896.16;5056095;28;20222;-51
2022/05/28 07:43:11;;;;;;;4.18;2.50;;;;;;;19.11;51.68;96898.03;5055912;28;20576;-50
2022/05/28 07:45:41;;;;;;;2.90;2.50;;;;;;;18.91;51.50;96894.31;5055077;28;20553;-51
2022/05/28 07:48:11;;;;;;;3.67;2.67;;;;;;;18.73;50.46;96895.56;5056094;28;20203;-52
2022/05/28 07:50:38;;;;;;;3.33;2.30;;;;;;;18.69;52.08;96891.59;5063008;28;20191;-52
2022/05/28 07:53:05;;;;;;;2.75;2.55;;;;;;;18.79;50.95;96886.78;5075021;28;20559;-52
2022/05/28 07:55:32;;;;;;;2.67;2.47;;;;;;;19.48;52.30;96883.59;5074071;28;20219;-51
2022/05/28 07:58:05;;;;;;;3.03;2.58;;;;;;;19.48;47.25;96892.50;5070363;28;20207;-51
2022/05/28 08:00:31;;;;;;;4.90;2.42;;;;;;;19.94;47.65;96879.44;5071955;28;20199;-50
2022/05/28 08:02:59;;;;;;;3.40;2.28;;;;;;;20.25;46.02;96884.41;5071814;28;20195;-50
2022/05/28 08:05:28;;;;;;;3.92;2.20;;;;;;;20.43;47.50;96874.00;5069729;28;20301;-50
2022/05/28 08:07:54;;;;;;;3.83;2.33;;;;;;;20.94;46.53;96874.41;5070488;28;20265;-51
2022/05/28 08:10:22;;;;;;;3.97;2.00;;;;;;;21.38;44.00;96870.41;5067677;28;20283;-50
2022/05/28 08:12:50;;;;;;;3.25;2.42;;;;;;;21.72;43.86;96873.75;5068979;28;20580;-50
2022/05/28 08:15:16;;;;;;;3.25;2.05;;;;;;;21.94;43.65;96874.38;5068617;28;20203;-50
2022/05/28 08:17:43;;;;;;;2.58;2.22;;;;;;;22.01;44.70;96877.06;5057140;28;20203;-50
2022/05/28 08:20:11;;;;;;;4.50;2.38;;;;;;;22.38;42.02;96879.09;5054977;28;20237;-51
2022/05/28 08:25:23;;;;;;;2.97;2.50;;;;;;;22.77;42.17;96867.38;5051064;28;20221;-50
2022/05/28 08:27:50;;;;;;;2.85;2.40;;;;;;;21.80;43.12;96864.63;5055380;28;20211;-50
2022/05/28 08:30:20;;;;;;;2.72;1.98;;;;;;;21.88;46.87;96866.28;5041354;28;20248;-50
2022/05/28 08:32:47;;;;;;;2.00;1.85;;;;;;;21.58;43.47;96861.31;5068217;28;20198;-51
2022/05/28 08:35:21;;;;;;;2.22;1.90;;;;;;;21.39;43.84;96862.16;5076354;28;20195;-50
2022/05/28 08:37:48;;;;;;;4.00;2.25;;;;;;;20.86;44.44;96861.16;5078048;28;20171;-51
2022/05/28 08:40:15;;;;;;;2.40;2.15;;;;;;;20.67;45.23;96845.78;5059396;28;20215;-52
2022/05/28 08:42:43;;;;;;;1.98;1.83;;;;;;;20.38;47.44;96859.50;5054006;28;20234;-51
2022/05/28 08:45:12;;;;;;;3.70;2.13;;;;;;;19.97;46.71;96854.91;5053851;28;20230;-52
2022/05/28 08:47:42;;;;;;;4.43;2.20;;;;;;;19.78;49.12;96851.03;5053518;28;20203;-53
2022/05/28 08:50:10;;;;;;;4.15;2.28;;;;;;;19.52;49.24;96855.38;5054868;28;20207;-49
2022/05/28 08:52:45;;;;;;;2.10;2.00;;;;;;;19.58;47.36;96849.22;5071054;28;20266;-51
2022/05/28 08:55:16;;;;;;;3.05;1.80;;;;;;;19.45;47.79;96844.56;5073880;28;20274;-53
2022/05/28 08:57:48;;;;;;;2.85;2.20;;;;;;;19.27;47.00;96846.88;5057402;28;20202;-50
2022/05/28 09:00:17;;;;;;;2.15;1.90;;;;;;;19.76;47.18;96845.06;5054780;28;20203;-51
2022/05/28 09:02:47;;;;;;;3.35;2.53;;;;;;;19.78;47.97;96837.63;5057864;28;20211;-51
2022/05/28 09:05:22;;;;;;;2.78;2.30;;;;;;;20.02;47.32;96836.31;5051645;28;20241;-52
2022/05/28 09:07:51;;;;;;;5.15;2.47;;;;;;;19.79;47.74;96833.91;5058456;28;20210;-52
2022/05/28 09:10:18;;;;;;;2.13;1.92;;;;;;;19.88;48.52;96830.03;5046626;28;20221;-51
2022/05/28 09:12:51;;;;;;;2.97;2.30;;;;;;;19.80;47.31;96824.03;5058527;28;20210;-48
2022/05/28 09:15:19;;;;;;;2.40;2.20;;;;;;;20.07;45.91;96825.00;5058357;28;20845;-50
2022/05/28 09:17:49;;;;;;;3.60;2.47;;;;;;;20.12;44.82;96828.75;5058430;28;20286;-50
2022/05/28 09:20:20;;;;;;;2.92;2.10;;;;;;;19.90;43.86;96832.53;5058586;28;20214;-50
2022/05/28 09:22:46;;;;;;;3.42;2.33;;;;;;;19.64;46.74;96824.28;5045049;28;20252;-49
2022/05/28 09:25:15;;;;;;;2.10;1.95;;;;;;;19.69;46.77;96824.56;5073985;28;20226;-50
2022/05/28 09:27:52;;;;;;;2.92;2.00;;;;;;;19.71;45.82;96826.00;5057866;28;20207;-51
2022/05/28 09:30:29;;;;;;;2.13;2.03;;;;;;;19.93;46.73;96816.03;5058388;28;20246;-50
2022/05/28 09:33:14;;;;;;;2.53;2.03;;;;;;;19.91;47.02;96817.28;5058543;28;20210;-51
2022/05/28 09:35:51;;;;;;;2.83;2.47;;;;;;;20.20;44.94;96807.09;5056690;28;20214;-56
2022/05/28 09:38:22;;;;;;;3.25;2.17;;;;;;;20.12;47.72;96806.47;5057813;28;20229;-53
2022/05/28 09:40:53;;;;;;;2.30;2.05;;;;;;;19.69;45.76;96803.94;5045967;28;20218;-53
2022/05/28 09:43:41;;;;;;;3.75;2.00;;;;;;;19.62;46.14;96795.00;5058028;28;20217;-53
2022/05/28 09:46:16;;;;;;;2.47;2.20;;;;;;;19.52;46.82;96797.16;5058107;28;20223;-52
2022/05/28 09:48:46;;;;;;;3.33;2.10;;;;;;;19.50;48.42;96798.41;5058276;28;20217;-53
2022/05/28 09:51:24;;;;;;;3.63;2.40;;;;;;;19.89;45.99;96798.66;5056514;28;20713;-51
2022/05/28 09:56:46;;;;;;;2.92;2.00;;;;;;;20.41;44.50;96795.44;5057773;28;20210;-52
2022/05/28 09:59:23;;;;;;;3.08;1.90;;;;;;;20.61;44.26;96796.38;5058264;28;20203;-54
2022/05/28 10:01:54;;;;;;;2.72;2.30;;;;;;;21.17;44.44;96801.47;5057328;28;20843;-51
2022/05/28 10:04:32;;;;;;;3.33;2.25;;;;;;;21.47;41.48;96789.28;5059064;28;20302;-50
2022/05/28 10:07:06;;;;;;;2.38;2.00;;;;;;;21.72;42.90;96776.00;5058237;28;20211;-51
2022/05/28 10:09:35;;;;;;;2.80;1.83;;;;;;;22.29;42.39;96772.56;5058222;28;20211;-51
2022/05/28 10:12:14;;;;;;;4.15;2.20;;;;;;;22.51;43.46;96765.84;5058030;28;20211;-50
2022/05/28 10:14:42;;;;;;;5.28;2.25;;;;;;;22.85;38.98;96766.53;5056335;28;20651;-50
2022/05/28 10:17:12;;;;;;;2.42;1.98;;;;;;;23.15;38.94;96762.16;5058396;28;20591;-52
2022/05/28 10:19:40;;;;;;;4.38;2.45;;;;;;;23.61;39.18;96757.25;5058097;28;20257;-51
2022/05/28 10:22:12;;;;;;;3.35;2.05;;;;;;;23.98;37.16;96763.53;5058689;28;20203;-50
2022/05/28 10:24:44;;;;;;;2.20;2.00;;;;;;;23.93;39.65;96744.47;5058950;28;20218;-52
2022/05/28 10:27:27;;;;;;;2.42;2.03;;;;;;;24.09;37.28;96745.75;5058685;28;20230;-51
2022/05/28 10:29:54;;;;;;;2.03;1.90;;;;;;;24.19;35.83;96738.81;5058789;28;20231;-51
2022/05/28 10:32:29;;;;;;;2.25;2.10;;;;;;;23.57;37.50;96736.31;5060473;28;20211;-49
2022/05/28 10:35:01;;;;;;;3.85;1.95;;;;;;;23.12;35.85;96736.47;5061235;28;20210;-50
2022/05/28 10:37:27;;;;;;;2.80;1.92;;;;;;;22.81;37.91;96734.59;5045988;28;20218;-49
2022/05/28 10:40:04;;;;;;;3.33;1.60;;;;;;;22.06;37.93;96729.16;5079762;28;20187;-51
2022/05/28 10:42:32;;;;;;;3.72;1.90;;;;;;;21.39;38.83;96742.94;5075692;28;20203;-50
2022/05/28 10:44:59;;;;;;;8.00;6.22;;;;;;;21.19;38.28;96732.16;5072651;28;20219;-50
2022/05/28 10:47:38;;;;;;;2.30;2.15;;;;;;;20.89;41.60;96736.25;5059222;28;20200;-49
2022/05/28 10:50:11;;;;;;;2.95;2.03;;;;;;;20.63;41.90;96739.72;5064077;28;20226;-50
2022/05/28 10:52:46;;;;;;;4.82;2.50;;;;;;;20.63;41.24;96735.19;5079832;28;20188;-49
2022/05/28 10:55:20;;;;;;;3.10;2.80;;;;;;;20.60;41.63;96732.91;5070601;28;20217;-50
2022/05/28 10:58:15;;;;;;;2.40;2.20;;;;;;;20.14;43.53;96724.66;5068200;28;20203;-49
2022/05/28 11:00:52;;;;;;;2.55;2.03;;;;;;;20.14;43.31;96721.97;5077023;28;20187;-48
2022/05/28 11:04:06;;;;;;;1.80;1.70;;;;;;;19.97;44.59;96720.69;5057465;28;20217;-49
2022/05/28 11:07:09;;;;;;;1.95;1.73;;;;;;;19.77;44.60;96712.50;5066677;28;20207;-48
2022/05/28 11:09:44;;;;;;;2.47;2.17;;;;;;;19.71;44.73;96710.63;5034803;28;20423;-49
2022/05/28 11:12:30;;;;;;;3.47;2.30;;;;;;;19.81;46.60;96716.44;5056051;28;20222;-49
2022/05/28 11:15:31;;;;;;;2.88;2.25;;;;;;;20.01;44.91;96705.81;5036306;28;20199;-49
2022/05/28 11:18:07;;;;;;;3.20;2.20;;;;;;;19.73;43.54;96705.88;5056122;28;20195;-50
2022/05/28 11:20:41;;;;;;;1.80;1.70;;;;;;;19.88;43.74;96706.59;5056232;28;20203;-49
2022/05/28 11:23:21;;;;;;;3.75;2.10;;;;;;;20.01;44.87;96699.63;5071972;28;20198;-48
2022/05/28 11:26:06;;;;;;;2.55;1.98;;;;;;;20.31;42.50;96695.63;5055196;28;20227;-49
2022/05/28 11:28:58;;;;;;;2.38;2.28;;;;;;;20.92;43.17;96692.81;5055877;28;20246;-50
2022/05/28 11:31:36;;;;;;;3.05;2.13;;;;;;;21.19;42.85;96689.13;5046092;28;20594;-50
2022/05/28 11:34:22;;;;;;;3.20;1.92;;;;;;;21.29;41.22;96700.31;5055941;28;20564;-49
2022/05/28 11:36:51;;;;;;;2.92;2.08;;;;;;;21.41;40.47;96685.19;5055318;28;20249;-50
2022/05/28 11:39:23;;;;;;;2.20;1.98;;;;;;;21.55;40.04;96684.13;5055910;28;20210;-49
2022/05/28 11:41:55;;;;;;;2.60;1.95;;;;;;;21.49;38.64;96676.88;5055636;28;20302;-49
2022/05/28 11:44:29;;;;;;;1.98;1.80;;;;;;;21.62;39.50;96674.16;5055561;28;20206;-50
2022/05/28 11:47:06;;;;;;;4.53;2.10;;;;;;;21.81;38.94;96662.50;5054618;28;20203;-55
2022/05/28 11:52:30;;;;;;;3.75;2.30;;;;;;;21.75;38.16;96660.66;5055231;28;20281;-57
2022/05/28 11:55:07;;;;;;;3.10;2.10;;;;;;;21.65;39.48;96673.72;5055326;28;20211;-54